createdAt,value
2023-03-14T00:00:40.224Z,0.60
2023-03-14T00:03:08.389Z,0.70
2023-03-14T00:05:37.871Z,0.80
2023-03-14T00:08:06.296Z,0.63
2023-03-14T00:10:34.342Z,0.77
2023-03-14T00:13:02.385Z,0.60
2023-03-14T00:15:30.534Z,0.70
2023-03-14T00:17:58.546Z,0.80
2023-03-14T00:20:26.698Z,1.10
2023-03-14T00:22:56.145Z,0.80
2023-03-14T00:25:24.205Z,1.60
2023-03-14T00:27:52.989Z,0.80
2023-03-14T00:30:21.523Z,0.98
2023-03-14T00:32:49.649Z,1.10
2023-03-14T00:35:17.972Z,1.00
2023-03-14T00:37:46.180Z,1.13
2023-03-14T00:40:16.000Z,1.25
2023-03-14T00:42:44.084Z,1.17
2023-03-14T00:45:12.537Z,1.30
2023-03-14T00:47:40.600Z,1.30
2023-03-14T00:50:11.054Z,1.50
2023-03-14T00:52:40.678Z,1.08
2023-03-14T00:55:09.249Z,1.33
2023-03-14T00:57:38.693Z,1.13
2023-03-14T01:00:11.635Z,1.10
2023-03-14T01:02:39.891Z,0.90
2023-03-14T01:05:08.690Z,1.20
2023-03-14T01:07:36.808Z,1.10
2023-03-14T01:10:09.077Z,1.10
2023-03-14T01:12:39.486Z,1.10
2023-03-14T01:15:09.043Z,0.93
2023-03-14T01:17:38.895Z,1.00
2023-03-14T01:20:10.110Z,0.85
2023-03-14T01:22:39.719Z,0.70
2023-03-14T01:25:09.269Z,0.88
2023-03-14T01:27:38.950Z,0.88
2023-03-14T01:30:09.020Z,0.60
2023-03-14T01:32:38.077Z,1.10
2023-03-14T01:35:07.143Z,0.57
2023-03-14T01:37:36.264Z,0.70
2023-03-14T01:40:07.097Z,0.60
2023-03-14T01:42:35.282Z,0.75
2023-03-14T01:45:04.874Z,1.00
2023-03-14T01:47:32.934Z,0.70
2023-03-14T01:50:05.869Z,0.80
2023-03-14T01:52:38.209Z,0.65
2023-03-14T01:55:11.450Z,1.13
2023-03-14T01:57:44.054Z,0.80
2023-03-14T02:00:18.941Z,0.60
2023-03-14T02:02:52.626Z,0.70
2023-03-14T02:05:24.913Z,0.52
2023-03-14T02:08:01.582Z,0.98
2023-03-14T02:10:42.280Z,0.70
2023-03-14T02:13:13.164Z,0.70
2023-03-14T02:16:03.126Z,0.98
2023-03-14T02:18:46.315Z,0.70
2023-03-14T02:21:31.954Z,0.90
2023-03-14T02:24:11.456Z,0.82
2023-03-14T02:29:47.326Z,0.60
2023-03-14T02:32:16.919Z,0.60
2023-03-14T02:34:48.089Z,0.60
2023-03-14T02:37:19.527Z,0.77
2023-03-14T02:39:50.084Z,0.70
2023-03-14T02:42:19.609Z,0.50
2023-03-14T02:45:01.578Z,0.73
2023-03-14T02:47:32.706Z,0.70
2023-03-14T02:50:06.479Z,0.80
2023-03-14T02:52:34.577Z,0.80
2023-03-14T02:55:02.958Z,1.27
2023-03-14T02:57:31.365Z,0.70
2023-03-14T03:00:04.019Z,0.70
2023-03-14T03:02:35.423Z,0.90
2023-03-14T03:05:03.570Z,0.70
2023-03-14T03:07:31.652Z,0.70
2023-03-14T03:10:00.870Z,0.90
2023-03-14T03:12:29.531Z,1.17
2023-03-14T03:14:57.626Z,1.08
2023-03-14T03:17:27.232Z,0.88
2023-03-14T03:19:55.283Z,0.70
2023-03-14T03:22:23.342Z,0.85
2023-03-14T03:24:51.552Z,0.80
2023-03-14T03:27:19.690Z,1.10
2023-03-14T03:29:48.623Z,1.25
2023-03-14T03:32:16.793Z,1.33
2023-03-14T03:34:46.299Z,0.80
2023-03-14T03:37:14.735Z,0.95
2023-03-14T03:39:43.923Z,1.10
2023-03-14T03:42:13.935Z,0.70
2023-03-14T03:44:42.073Z,0.90
2023-03-14T03:47:11.689Z,1.02
2023-03-14T03:49:40.128Z,1.58
2023-03-14T03:52:11.992Z,0.90
2023-03-14T03:54:40.301Z,0.80
2023-03-14T03:57:08.516Z,0.70
2023-03-14T03:59:36.917Z,1.10
2023-03-14T04:02:05.097Z,0.80
2023-03-14T04:04:33.617Z,0.88
2023-03-14T04:07:03.366Z,1.10
2023-03-14T04:09:33.130Z,0.80
2023-03-14T04:12:27.170Z,1.08
2023-03-14T04:15:10.168Z,0.85
2023-03-14T04:17:40.627Z,0.80
2023-03-14T04:20:12.187Z,0.90
2023-03-14T04:22:44.182Z,0.80
2023-03-14T04:25:14.930Z,0.95
2023-03-14T04:27:47.238Z,0.95
2023-03-14T04:30:21.420Z,0.90
2023-03-14T04:32:54.682Z,1.35
2023-03-14T04:35:25.990Z,1.17
2023-03-14T04:37:58.924Z,0.77
2023-03-14T04:40:29.059Z,1.38
2023-03-14T04:43:02.241Z,1.10
2023-03-14T04:45:31.058Z,0.80
2023-03-14T04:48:01.516Z,0.90
2023-03-14T04:50:29.780Z,1.30
2023-03-14T04:52:58.062Z,0.93
2023-03-14T04:55:28.011Z,1.00
2023-03-14T04:57:57.839Z,1.35
2023-03-14T05:00:26.920Z,1.02
2023-03-14T05:03:16.991Z,0.90
2023-03-14T05:05:58.489Z,1.30
2023-03-14T05:08:46.119Z,0.80
2023-03-14T05:11:34.460Z,0.90
2023-03-14T05:14:05.877Z,1.00
2023-03-14T05:16:34.038Z,1.40
2023-03-14T05:19:38.044Z,0.90
2023-03-14T05:22:24.730Z,0.88
2023-03-14T05:25:02.740Z,0.90
2023-03-14T05:27:35.500Z,1.00
2023-03-14T05:30:22.753Z,1.00
2023-03-14T05:33:20.275Z,0.90
2023-03-14T05:36:12.817Z,0.90
2023-03-14T05:38:59.656Z,0.73
2023-03-14T05:41:46.477Z,0.80
2023-03-14T05:44:38.762Z,0.70
2023-03-14T05:47:19.659Z,1.00
2023-03-14T05:50:02.699Z,2.05
2023-03-14T05:52:49.120Z,1.00
2023-03-14T05:55:35.809Z,0.80
2023-03-14T05:58:17.550Z,0.80
2023-03-14T06:00:52.650Z,0.85
2023-03-14T06:03:38.449Z,0.70
2023-03-14T06:06:08.273Z,0.70
2023-03-14T06:08:36.367Z,0.80
2023-03-14T06:11:06.162Z,0.60
2023-03-14T06:13:34.542Z,0.60
2023-03-14T06:16:04.082Z,0.77
2023-03-14T06:18:33.118Z,1.13
2023-03-14T06:21:01.246Z,0.70
2023-03-14T06:23:31.601Z,1.90
2023-03-14T06:26:01.035Z,1.60
2023-03-14T06:28:29.266Z,0.73
2023-03-14T06:31:01.374Z,0.60
2023-03-14T06:33:35.625Z,1.05
2023-03-14T06:36:05.479Z,0.82
2023-03-14T06:38:34.526Z,0.80
2023-03-14T06:41:06.009Z,0.95
2023-03-14T06:43:41.642Z,0.82
2023-03-14T06:46:10.739Z,0.90
2023-03-14T06:48:42.567Z,0.70
2023-03-14T06:51:11.004Z,0.70
2023-03-14T06:53:39.369Z,0.70
2023-03-14T06:56:09.427Z,1.20
2023-03-14T06:58:38.215Z,0.73
2023-03-14T07:01:18.284Z,0.60
2023-03-14T07:03:47.758Z,0.95
2023-03-14T07:06:16.247Z,0.88
2023-03-14T07:08:44.353Z,0.70
2023-03-14T07:11:13.370Z,0.70
2023-03-14T07:13:41.875Z,0.70
2023-03-14T07:16:10.979Z,0.50
2023-03-14T07:18:40.157Z,0.60
2023-03-14T07:21:11.107Z,0.70
2023-03-14T07:23:40.381Z,0.90
2023-03-14T07:26:09.722Z,1.23
2023-03-14T07:28:41.767Z,0.57
2023-03-14T07:31:14.323Z,0.70
2023-03-14T07:33:43.328Z,0.70
2023-03-14T07:36:13.086Z,1.05
2023-03-14T07:38:44.551Z,0.55
2023-03-14T07:41:12.721Z,0.60
2023-03-14T07:44:03.974Z,0.60
2023-03-14T07:46:32.171Z,0.60
2023-03-14T07:49:00.461Z,0.60
2023-03-14T07:51:30.017Z,0.90
2023-03-14T07:53:58.287Z,1.00
2023-03-14T07:56:26.472Z,0.50
2023-03-14T07:58:54.816Z,1.05
2023-03-14T08:01:23.112Z,0.63
2023-03-14T08:03:51.483Z,0.55
2023-03-14T08:06:19.660Z,0.70
2023-03-14T08:08:49.148Z,0.60
2023-03-14T08:11:17.505Z,0.60
2023-03-14T08:13:50.507Z,0.65
2023-03-14T08:16:19.301Z,1.10
2023-03-14T08:18:47.868Z,0.77
2023-03-14T08:21:16.309Z,0.50
2023-03-14T08:23:44.480Z,0.70
2023-03-14T08:26:13.893Z,0.70
2023-03-14T08:28:42.100Z,0.60
2023-03-14T08:31:10.217Z,0.55
2023-03-14T08:33:38.376Z,0.55
2023-03-14T08:36:07.316Z,0.60
2023-03-14T08:38:35.416Z,0.60
2023-03-14T08:41:04.884Z,0.68
2023-03-14T08:43:34.618Z,0.70
2023-03-14T08:46:03.827Z,0.60
2023-03-14T08:48:32.553Z,0.75
2023-03-14T08:51:06.759Z,0.70
2023-03-14T08:53:34.913Z,0.65
2023-03-14T08:56:03.287Z,0.90
2023-03-14T08:58:31.539Z,0.60
2023-03-14T09:01:01.337Z,0.80
2023-03-14T09:03:29.884Z,0.60
2023-03-14T09:05:58.046Z,0.80
2023-03-14T09:08:26.311Z,0.60
2023-03-14T09:10:54.595Z,0.70
2023-03-14T09:13:22.682Z,0.68
2023-03-14T09:15:53.156Z,0.68
2023-03-14T09:18:23.731Z,0.60
2023-03-14T09:20:51.861Z,0.60
2023-03-14T09:23:20.029Z,0.60
2023-03-14T09:25:48.622Z,0.68
2023-03-14T09:28:17.052Z,0.60
2023-03-14T09:30:45.473Z,0.63
2023-03-14T09:33:13.587Z,0.65
2023-03-14T09:35:43.178Z,0.70
2023-03-14T09:38:11.338Z,0.52
2023-03-14T09:40:40.264Z,0.65
2023-03-14T09:43:12.445Z,0.60
2023-03-14T09:45:44.027Z,0.60
2023-03-14T09:48:18.819Z,0.50
2023-03-14T09:50:52.075Z,0.50
2023-03-14T09:53:22.684Z,0.50
2023-03-14T09:55:52.819Z,0.50
2023-03-14T09:58:23.806Z,0.57
2023-03-14T10:00:54.266Z,0.55
2023-03-14T10:03:27.844Z,0.57
2023-03-14T10:05:58.352Z,0.80
2023-03-14T10:08:26.578Z,0.70
2023-03-14T10:10:55.727Z,0.68
2023-03-14T10:13:27.177Z,0.50
2023-03-14T10:15:57.601Z,0.50
2023-03-14T10:18:29.062Z,0.55
2023-03-14T10:21:08.879Z,0.50
2023-03-14T10:23:37.839Z,1.38
2023-03-14T10:26:09.780Z,0.77
2023-03-14T10:28:42.515Z,1.00
2023-03-14T10:31:11.242Z,0.52
2023-03-14T10:33:40.464Z,0.60
2023-03-14T10:36:21.642Z,0.60
2023-03-14T10:38:50.254Z,0.50
2023-03-14T10:41:21.308Z,0.60
2023-03-14T10:43:52.830Z,0.60
2023-03-14T10:46:22.673Z,0.50
2023-03-14T10:49:10.627Z,0.70
2023-03-14T10:51:40.386Z,0.50
2023-03-14T10:54:16.855Z,0.70
2023-03-14T10:56:44.868Z,0.70
2023-03-14T10:59:16.576Z,0.60
2023-03-14T11:01:53.517Z,0.57
2023-03-14T11:04:33.320Z,0.50
2023-03-14T11:07:10.434Z,0.70
2023-03-14T11:09:47.286Z,0.70
2023-03-14T11:12:31.261Z,0.50
2023-03-14T11:15:04.212Z,0.50
2023-03-14T11:17:41.110Z,0.60
2023-03-14T11:20:40.853Z,0.55
2023-03-14T11:23:16.401Z,0.40
2023-03-14T11:25:55.153Z,0.50
2023-03-14T11:28:28.768Z,0.50
2023-03-14T11:31:03.074Z,0.60
2023-03-14T11:33:38.744Z,0.70
2023-03-14T11:36:10.250Z,0.70
2023-03-14T11:38:45.705Z,0.50
2023-03-14T11:41:19.174Z,0.50
2023-03-14T11:43:50.214Z,0.80
2023-03-14T11:46:24.041Z,0.68
2023-03-14T11:49:01.615Z,0.40
2023-03-14T11:51:34.200Z,0.55
2023-03-14T11:54:12.864Z,0.50
2023-03-14T11:56:48.998Z,0.50
2023-03-14T11:59:21.911Z,0.98
2023-03-14T12:02:01.606Z,0.40
2023-03-14T12:04:54.347Z,0.50
2023-03-14T12:07:26.053Z,0.50
2023-03-14T12:09:56.667Z,0.45
2023-03-14T12:12:27.888Z,0.40
2023-03-14T12:14:59.311Z,0.55
2023-03-14T12:17:29.501Z,0.90
2023-03-14T12:20:08.424Z,0.80
2023-03-14T12:22:38.375Z,0.90
2023-03-14T12:25:17.405Z,0.90
2023-03-14T12:27:50.294Z,1.20
2023-03-14T12:30:28.304Z,1.10
2023-03-14T12:33:33.834Z,1.30
2023-03-14T12:36:04.865Z,1.88
2023-03-14T12:38:53.763Z,1.30
2023-03-14T12:41:27.415Z,1.15
2023-03-14T12:43:55.775Z,1.20
2023-03-14T12:46:27.321Z,1.05
2023-03-14T12:49:08.389Z,1.48
2023-03-14T12:51:39.034Z,0.85
2023-03-14T12:54:22.253Z,0.88
2023-03-14T12:57:17.788Z,0.80
2023-03-14T12:59:53.088Z,1.20
2023-03-14T13:02:28.052Z,0.90
2023-03-14T13:05:12.552Z,1.25
2023-03-14T13:08:13.885Z,1.27
2023-03-14T13:10:47.518Z,0.95
2023-03-14T13:13:23.442Z,0.80
2023-03-14T13:15:59.218Z,0.82
2023-03-14T13:18:32.167Z,1.45
2023-03-14T13:21:04.806Z,0.80
2023-03-14T13:23:35.383Z,1.25
2023-03-14T13:26:03.982Z,0.70
2023-03-14T13:28:37.010Z,2.75
2023-03-14T13:31:06.505Z,1.25
2023-03-14T13:33:35.877Z,1.00
2023-03-14T13:36:06.598Z,0.80
2023-03-14T13:38:37.656Z,0.82
2023-03-14T13:41:08.357Z,0.80
2023-03-14T13:43:42.429Z,1.30
2023-03-14T13:46:16.878Z,0.73
2023-03-14T13:48:48.700Z,0.70
2023-03-14T13:51:20.160Z,1.10
2023-03-14T13:53:51.998Z,1.10
2023-03-14T13:56:21.503Z,0.60
2023-03-14T13:58:51.525Z,1.00
2023-03-14T14:01:22.316Z,1.13
2023-03-14T14:03:53.077Z,0.70
2023-03-14T14:06:34.521Z,0.70
2023-03-14T14:09:06.441Z,0.68
2023-03-14T14:11:48.788Z,1.05
2023-03-14T14:14:39.274Z,0.80
2023-03-14T14:17:12.871Z,1.13
2023-03-14T14:19:43.553Z,0.70
2023-03-14T14:22:12.747Z,0.80
2023-03-14T14:24:41.810Z,0.90
2023-03-14T14:27:15.568Z,0.70
2023-03-14T14:29:46.577Z,1.05
2023-03-14T14:32:16.530Z,0.80
2023-03-14T14:34:50.435Z,0.60
2023-03-14T14:37:25.155Z,0.80
2023-03-14T14:39:57.614Z,1.10
2023-03-14T14:42:29.306Z,1.15
2023-03-14T14:45:00.729Z,1.00
2023-03-14T14:47:30.927Z,1.02
2023-03-14T14:50:02.651Z,2.33
2023-03-14T14:52:40.695Z,1.00
2023-03-14T14:55:19.659Z,1.05
2023-03-14T14:57:53.096Z,1.13
2023-03-14T15:00:24.886Z,1.27
2023-03-14T15:02:55.705Z,1.65
2023-03-14T15:05:25.205Z,1.02
2023-03-14T15:07:53.596Z,0.90
2023-03-14T15:10:23.927Z,1.00
2023-03-14T15:12:52.273Z,1.20
2023-03-14T15:15:20.835Z,1.13
2023-03-14T15:17:50.358Z,1.20
2023-03-14T15:20:20.508Z,1.10
2023-03-14T15:22:49.177Z,1.10
2023-03-14T15:25:43.602Z,1.58
2023-03-14T15:28:15.771Z,0.93
2023-03-14T15:30:43.850Z,1.23
2023-03-14T15:33:13.137Z,0.80
2023-03-14T15:35:42.727Z,1.30
2023-03-14T15:38:14.152Z,0.80
2023-03-14T15:40:42.795Z,1.27
2023-03-14T15:43:11.112Z,0.82
2023-03-14T15:45:39.436Z,1.10
2023-03-14T15:48:07.746Z,1.00
2023-03-14T15:50:37.599Z,1.10
2023-03-14T15:53:05.849Z,0.80
2023-03-14T15:55:34.328Z,1.63
2023-03-14T15:58:03.592Z,1.20
2023-03-14T16:00:32.641Z,1.05
2023-03-14T16:03:01.014Z,1.13
2023-03-14T16:05:29.276Z,1.40
2023-03-14T16:07:58.986Z,1.30
2023-03-14T16:10:28.867Z,1.13
2023-03-14T16:12:57.479Z,1.73
2023-03-14T16:15:26.940Z,1.00
2023-03-14T16:17:55.356Z,1.30
2023-03-14T16:20:23.773Z,1.00
2023-03-14T16:22:51.861Z,1.48
2023-03-14T16:25:21.822Z,1.08
2023-03-14T16:27:53.363Z,1.13
2023-03-14T16:30:28.686Z,1.15
2023-03-14T16:32:58.431Z,1.13
2023-03-14T16:35:26.689Z,1.00
2023-03-14T16:37:54.717Z,0.90
2023-03-14T16:40:24.442Z,0.95
2023-03-14T16:45:41.869Z,1.15
2023-03-14T16:48:09.989Z,1.00
2023-03-14T16:50:37.997Z,1.48
2023-03-14T16:53:09.720Z,1.40
2023-03-14T16:55:43.941Z,1.23
2023-03-14T16:58:12.311Z,1.48
2023-03-14T17:00:40.764Z,1.52
2023-03-14T17:03:09.195Z,1.48
2023-03-14T17:05:37.473Z,1.48
2023-03-14T17:08:06.339Z,1.55
2023-03-14T17:10:38.062Z,1.55
2023-03-14T17:13:08.167Z,1.77
2023-03-14T17:15:36.520Z,1.60
2023-03-14T17:18:05.319Z,1.30
2023-03-14T17:20:34.051Z,1.77
2023-03-14T17:23:02.186Z,1.77
2023-03-14T17:25:30.804Z,1.20
2023-03-14T17:27:59.005Z,2.03
2023-03-14T17:30:28.742Z,1.58
2023-03-14T17:32:58.576Z,1.95
2023-03-14T17:35:26.796Z,2.38
2023-03-14T17:37:55.385Z,1.70
2023-03-14T17:40:23.744Z,1.85
2023-03-14T17:42:52.738Z,2.05
2023-03-14T17:45:21.255Z,1.65
2023-03-14T17:47:50.818Z,1.90
2023-03-14T17:50:19.107Z,2.35
2023-03-14T17:52:47.213Z,2.20
2023-03-14T17:55:15.261Z,1.75
2023-03-14T17:57:44.888Z,2.00
2023-03-14T18:00:14.481Z,2.05
2023-03-14T18:02:44.340Z,1.80
2023-03-14T18:05:14.355Z,1.35
2023-03-14T18:07:45.846Z,1.92
2023-03-14T18:10:14.413Z,2.35
2023-03-14T18:12:42.546Z,1.90
2023-03-14T18:15:13.419Z,1.55
2023-03-14T18:17:44.660Z,2.05
2023-03-14T18:20:17.852Z,1.60
2023-03-14T18:22:48.759Z,1.30
2023-03-14T18:25:18.562Z,1.55
2023-03-14T18:27:47.481Z,1.63
2023-03-14T18:30:17.246Z,1.40
2023-03-14T18:32:49.167Z,1.30
2023-03-14T18:35:23.669Z,1.27
2023-03-14T18:37:54.735Z,1.23
2023-03-14T18:40:26.272Z,1.33
2023-03-14T18:42:57.000Z,1.20
2023-03-14T18:45:26.292Z,1.90
2023-03-14T18:47:54.610Z,1.20
2023-03-14T18:50:24.513Z,2.25
2023-03-14T18:52:53.302Z,1.35
2023-03-14T18:55:21.658Z,1.17
2023-03-14T18:57:50.131Z,1.33
2023-03-14T19:00:19.933Z,1.50
2023-03-14T19:02:48.454Z,1.15
2023-03-14T19:05:17.170Z,1.00
2023-03-14T19:07:47.032Z,1.20
2023-03-14T19:10:15.312Z,1.30
2023-03-14T19:12:43.851Z,1.52
2023-03-14T19:15:13.064Z,1.13
2023-03-14T19:17:43.184Z,1.00
2023-03-14T19:20:13.224Z,1.20
2023-03-14T19:22:43.933Z,1.45
2023-03-14T19:25:17.659Z,1.35
2023-03-14T19:27:51.791Z,1.33
2023-03-14T19:30:22.299Z,1.08
2023-03-14T19:32:56.161Z,0.82
2023-03-14T19:35:25.397Z,0.90
2023-03-14T19:37:56.968Z,1.20
2023-03-14T19:40:34.087Z,1.40
2023-03-14T19:43:06.543Z,0.93
2023-03-14T19:45:39.989Z,1.00
2023-03-14T19:48:16.939Z,1.30
2023-03-14T19:50:50.445Z,1.30
2023-03-14T19:53:26.754Z,1.17
2023-03-14T19:56:02.971Z,1.45
2023-03-14T19:58:37.233Z,0.70
2023-03-14T20:01:08.682Z,1.40
2023-03-14T20:03:44.227Z,1.35
2023-03-14T20:06:16.145Z,1.45
2023-03-14T20:08:45.969Z,0.90
2023-03-14T20:11:17.617Z,1.35
2023-03-14T20:13:51.028Z,1.77
2023-03-14T20:16:22.495Z,1.30
2023-03-14T20:18:56.918Z,1.52
2023-03-14T20:21:33.643Z,1.00
2023-03-14T20:24:07.028Z,1.10
2023-03-14T20:26:43.821Z,1.40
2023-03-14T20:29:16.158Z,1.25
2023-03-14T20:31:48.225Z,1.48
2023-03-14T20:34:23.751Z,1.48
2023-03-14T20:36:55.674Z,1.40
2023-03-14T20:39:26.947Z,1.80
2023-03-14T20:41:59.819Z,1.83
2023-03-14T20:44:30.085Z,1.80
2023-03-14T20:47:05.020Z,1.17
2023-03-14T20:49:38.449Z,1.40
2023-03-14T20:52:13.225Z,1.30
2023-03-14T20:54:46.105Z,1.02
2023-03-14T20:57:18.910Z,1.42
2023-03-14T20:59:51.517Z,1.13
2023-03-14T21:02:22.573Z,1.58
2023-03-14T21:04:56.843Z,1.95
2023-03-14T21:07:28.707Z,1.27
2023-03-14T21:10:00.638Z,1.30
2023-03-14T21:12:35.741Z,1.60
2023-03-14T21:15:08.565Z,1.70
2023-03-14T21:17:40.997Z,1.52
2023-03-14T21:20:13.407Z,1.90
2023-03-14T21:22:43.996Z,1.70
2023-03-14T21:25:17.182Z,1.90
2023-03-14T21:27:51.938Z,2.88
2023-03-14T21:30:25.659Z,2.38
2023-03-14T21:32:58.578Z,2.30
2023-03-14T21:35:31.539Z,3.38
2023-03-14T21:38:01.531Z,2.40
2023-03-14T21:40:30.439Z,2.17
2023-03-14T21:43:01.477Z,2.75
2023-03-14T21:45:29.853Z,2.58
2023-03-14T21:47:59.539Z,2.35
2023-03-14T21:50:28.150Z,2.30
2023-03-14T21:52:57.782Z,2.53
2023-03-14T21:55:26.934Z,2.72
2023-03-14T21:57:56.434Z,2.83
2023-03-14T22:00:27.128Z,3.58
2023-03-14T22:03:12.884Z,2.67
2023-03-14T22:05:43.703Z,0.80
2023-03-14T22:08:12.270Z,0.70
2023-03-14T22:10:44.607Z,0.85
2023-03-14T22:13:13.244Z,1.00
2023-03-14T22:15:45.557Z,1.30
2023-03-14T22:18:14.355Z,1.75
2023-03-14T22:20:42.840Z,1.77
2023-03-14T22:23:11.925Z,1.50
2023-03-14T22:25:41.256Z,1.40
2023-03-14T22:28:09.848Z,1.70
2023-03-14T22:30:38.507Z,1.60
2023-03-14T22:33:08.587Z,2.28
2023-03-14T22:35:36.805Z,2.00
2023-03-14T22:38:05.107Z,2.63
2023-03-14T22:40:33.181Z,2.80
2023-03-14T22:43:01.296Z,2.75
2023-03-14T22:45:29.496Z,2.83
2023-03-14T22:47:58.829Z,3.63
2023-03-14T22:50:28.382Z,3.35
2023-03-14T22:52:58.995Z,3.30
2023-03-14T22:55:27.107Z,3.00
2023-03-14T22:57:57.160Z,2.80
2023-03-14T23:00:27.152Z,2.65
2023-03-14T23:02:55.518Z,3.38
2023-03-14T23:05:24.101Z,2.88
2023-03-14T23:07:54.274Z,3.75
2023-03-14T23:10:22.806Z,2.55
2023-03-14T23:12:50.831Z,2.15
2023-03-14T23:15:19.093Z,2.50
2023-03-14T23:17:47.387Z,2.60
2023-03-14T23:20:15.396Z,3.25
2023-03-14T23:22:43.573Z,2.80
2023-03-14T23:25:13.427Z,4.30
2023-03-14T23:27:46.492Z,3.65
2023-03-14T23:30:15.811Z,3.45
2023-03-14T23:32:44.070Z,4.75
2023-03-14T23:35:13.798Z,4.45
2023-03-14T23:37:42.274Z,5.18
2023-03-14T23:40:13.072Z,4.30
2023-03-14T23:42:41.380Z,5.53
2023-03-14T23:45:09.827Z,6.82
2023-03-14T23:47:38.078Z,6.57
2023-03-14T23:50:06.964Z,6.95
2023-03-14T23:52:35.020Z,5.60
2023-03-14T23:55:03.231Z,4.90
2023-03-14T23:57:32.895Z,6.03
